sensor_id;sensor_type;location;lat;lon;timestamp;temperature;humidity
15292;DHT22;57357;49.480;11.058;2022-07-29T00:01:28;21.10;90.70
15292;DHT22;57357;49.480;11.058;2022-07-29T00:04:10;21.10;90.70
15292;DHT22;57357;49.480;11.058;2022-07-29T00:06:38;21.10;90.60
15292;DHT22;57357;49.480;11.058;2022-07-29T00:09:05;21.10;90.70
15292;DHT22;57357;49.480;11.058;2022-07-29T00:11:47;21.10;90.70
15292;DHT22;57357;49.480;11.058;2022-07-29T00:17:13;21.10;90.80
15292;DHT22;57357;49.480;11.058;2022-07-29T00:19:41;21.00;90.80
15292;DHT22;57357;49.480;11.058;2022-07-29T00:22:23;21.10;90.60
15292;DHT22;57357;49.480;11.058;2022-07-29T00:24:51;21.10;90.70
15292;DHT22;57357;49.480;11.058;2022-07-29T00:27:19;21.10;90.70
15292;DHT22;57357;49.480;11.058;2022-07-29T00:30:00;21.10;90.70
15292;DHT22;57357;49.480;11.058;2022-07-29T00:35:26;21.00;90.70
15292;DHT22;57357;49.480;11.058;2022-07-29T00:38:12;21.00;90.70
15292;DHT22;57357;49.480;11.058;2022-07-29T00:40:54;21.10;91.10
15292;DHT22;57357;49.480;11.058;2022-07-29T00:43:22;21.00;90.80
15292;DHT22;57357;49.480;11.058;2022-07-29T00:46:04;21.00;90.70
15292;DHT22;57357;49.480;11.058;2022-07-29T00:48:32;21.00;90.70
15292;DHT22;57357;49.480;11.058;2022-07-29T00:53:57;20.90;90.90
15292;DHT22;57357;49.480;11.058;2022-07-29T00:56:39;20.90;90.90
15292;DHT22;57357;49.480;11.058;2022-07-29T00:59:07;20.90;90.90
15292;DHT22;57357;49.480;11.058;2022-07-29T01:01:35;20.90;91.00
15292;DHT22;57357;49.480;11.058;2022-07-29T01:04:03;20.80;90.90
15292;DHT22;57357;49.480;11.058;2022-07-29T01:06:44;20.80;91.00
15292;DHT22;57357;49.480;11.058;2022-07-29T01:12:15;20.80;91.20
15292;DHT22;57357;49.480;11.058;2022-07-29T01:14:44;20.70;91.20
15292;DHT22;57357;49.480;11.058;2022-07-29T01:17:26;20.70;91.30
15292;DHT22;57357;49.480;11.058;2022-07-29T01:20:20;20.70;91.50
15292;DHT22;57357;49.480;11.058;2022-07-29T01:23:01;20.70;91.70
15292;DHT22;57357;49.480;11.058;2022-07-29T01:25:44;20.60;91.80
15292;DHT22;57357;49.480;11.058;2022-07-29T01:31:38;20.50;92.70
15292;DHT22;57357;49.480;11.058;2022-07-29T01:34:11;20.50;92.20
15292;DHT22;57357;49.480;11.058;2022-07-29T01:36:43;20.50;92.30
15292;DHT22;57357;49.480;11.058;2022-07-29T01:39:26;20.40;92.50
15292;DHT22;57357;49.480;11.058;2022-07-29T01:42:10;20.40;92.10
15292;DHT22;57357;49.480;11.058;2022-07-29T01:44:41;20.40;92.20
15292;DHT22;57357;49.480;11.058;2022-07-29T01:50:10;20.30;92.60
15292;DHT22;57357;49.480;11.058;2022-07-29T01:52:54;20.30;92.50
15292;DHT22;57357;49.480;11.058;2022-07-29T01:55:24;20.20;92.80
15292;DHT22;57357;49.480;11.058;2022-07-29T01:57:53;20.10;92.80
15292;DHT22;57357;49.480;11.058;2022-07-29T02:00:37;20.10;93.00
15292;DHT22;57357;49.480;11.058;2022-07-29T02:03:19;20.00;93.10
15292;DHT22;57357;49.480;11.058;2022-07-29T02:08:32;20.00;93.80
15292;DHT22;57357;49.480;11.058;2022-07-29T02:11:14;19.90;93.70
15292;DHT22;57357;49.480;11.058;2022-07-29T02:13:56;19.90;94.00
15292;DHT22;57357;49.480;11.058;2022-07-29T02:16:25;19.80;93.90
15292;DHT22;57357;49.480;11.058;2022-07-29T02:18:54;19.80;94.20
15292;DHT22;57357;49.480;11.058;2022-07-29T02:21:24;19.70;94.30
15292;DHT22;57357;49.480;11.058;2022-07-29T02:27:04;19.80;94.50
15292;DHT22;57357;49.480;11.058;2022-07-29T02:29:32;19.60;94.70
15292;DHT22;57357;49.480;11.058;2022-07-29T02:31:59;19.60;94.60
15292;DHT22;57357;49.480;11.058;2022-07-29T02:34:42;19.50;94.80
15292;DHT22;57357;49.480;11.058;2022-07-29T02:37:24;19.50;94.70
15292;DHT22;57357;49.480;11.058;2022-07-29T02:39:53;19.50;94.80
15292;DHT22;57357;49.480;11.058;2022-07-29T02:45:19;19.50;95.00
15292;DHT22;57357;49.480;11.058;2022-07-29T02:48:02;19.40;95.10
15292;DHT22;57357;49.480;11.058;2022-07-29T02:50:33;19.40;95.20
15292;DHT22;57357;49.480;11.058;2022-07-29T02:53:04;19.30;95.20
15292;DHT22;57357;49.480;11.058;2022-07-29T02:55:33;19.30;95.30
15292;DHT22;57357;49.480;11.058;2022-07-29T02:58:16;19.20;95.50
15292;DHT22;57357;49.480;11.058;2022-07-29T03:03:49;19.20;95.40
15292;DHT22;57357;49.480;11.058;2022-07-29T03:06:17;19.10;95.40
15292;DHT22;57357;49.480;11.058;2022-07-29T03:08:59;19.20;95.30
15292;DHT22;57357;49.480;11.058;2022-07-29T03:11:41;19.10;95.50
15292;DHT22;57357;49.480;11.058;2022-07-29T03:14:15;19.10;95.60
15292;DHT22;57357;49.480;11.058;2022-07-29T03:16:44;19.10;95.70
15292;DHT22;57357;49.480;11.058;2022-07-29T03:22:10;19.10;95.80
15292;DHT22;57357;49.480;11.058;2022-07-29T03:24:51;19.00;95.90
15292;DHT22;57357;49.480;11.058;2022-07-29T03:29:58;19.00;96.00
15292;DHT22;57357;49.480;11.058;2022-07-29T03:32:40;19.00;96.10
15292;DHT22;57357;49.480;11.058;2022-07-29T03:35:23;18.90;96.10
15292;DHT22;57357;49.480;11.058;2022-07-29T03:40:35;19.00;95.90
15292;DHT22;57357;49.480;11.058;2022-07-29T03:43:19;19.00;96.00
15292;DHT22;57357;49.480;11.058;2022-07-29T03:46:01;19.00;96.30
15292;DHT22;57357;49.480;11.058;2022-07-29T03:48:31;18.90;96.30
15292;DHT22;57357;49.480;11.058;2022-07-29T03:51:00;18.90;96.40
15292;DHT22;57357;49.480;11.058;2022-07-29T03:53:28;18.90;96.40
15292;DHT22;57357;49.480;11.058;2022-07-29T03:59:08;19.00;96.20
15292;DHT22;57357;49.480;11.058;2022-07-29T04:01:37;19.00;96.10
15292;DHT22;57357;49.480;11.058;2022-07-29T04:04:06;19.00;96.10
15292;DHT22;57357;49.480;11.058;2022-07-29T04:06:47;19.10;96.10
15292;DHT22;57357;49.480;11.058;2022-07-29T04:09:15;19.10;95.80
15292;DHT22;57357;49.480;11.058;2022-07-29T04:11:43;19.00;96.10
15292;DHT22;57357;49.480;11.058;2022-07-29T04:14:28;19.10;96.20
15292;DHT22;57357;49.480;11.058;2022-07-29T04:16:56;19.10;95.90
15292;DHT22;57357;49.480;11.058;2022-07-29T04:19:23;19.00;95.90
15292;DHT22;57357;49.480;11.058;2022-07-29T04:21:51;19.00;96.10
15292;DHT22;57357;49.480;11.058;2022-07-29T04:24:19;19.00;96.30
15292;DHT22;57357;49.480;11.058;2022-07-29T04:26:47;19.00;96.10
15292;DHT22;57357;49.480;11.058;2022-07-29T04:29:15;19.00;96.50
15292;DHT22;57357;49.480;11.058;2022-07-29T04:31:44;18.90;96.70
15292;DHT22;57357;49.480;11.058;2022-07-29T04:34:12;19.00;96.40
15292;DHT22;57357;49.480;11.058;2022-07-29T04:36:40;18.90;96.50
15292;DHT22;57357;49.480;11.058;2022-07-29T04:39:08;18.90;96.60
15292;DHT22;57357;49.480;11.058;2022-07-29T04:41:36;18.90;96.60
15292;DHT22;57357;49.480;11.058;2022-07-29T04:44:04;18.90;97.10
15292;DHT22;57357;49.480;11.058;2022-07-29T04:46:33;18.80;97.70
15292;DHT22;57357;49.480;11.058;2022-07-29T04:49:02;18.80;97.30
15292;DHT22;57357;49.480;11.058;2022-07-29T04:51:30;18.70;97.50
15292;DHT22;57357;49.480;11.058;2022-07-29T04:53:58;18.70;97.70
15292;DHT22;57357;49.480;11.058;2022-07-29T04:56:26;18.70;97.90
15292;DHT22;57357;49.480;11.058;2022-07-29T04:58:54;18.80;97.70
15292;DHT22;57357;49.480;11.058;2022-07-29T05:01:21;18.80;97.60
15292;DHT22;57357;49.480;11.058;2022-07-29T05:03:49;19.00;97.40
15292;DHT22;57357;49.480;11.058;2022-07-29T05:06:21;19.10;97.10
15292;DHT22;57357;49.480;11.058;2022-07-29T05:08:49;19.00;97.40
15292;DHT22;57357;49.480;11.058;2022-07-29T05:11:17;19.10;97.70
15292;DHT22;57357;49.480;11.058;2022-07-29T05:13:47;19.10;97.30
15292;DHT22;57357;49.480;11.058;2022-07-29T05:16:15;19.20;97.10
15292;DHT22;57357;49.480;11.058;2022-07-29T05:18:43;19.30;97.50
15292;DHT22;57357;49.480;11.058;2022-07-29T05:21:11;19.30;97.40
15292;DHT22;57357;49.480;11.058;2022-07-29T05:23:40;19.40;97.30
15292;DHT22;57357;49.480;11.058;2022-07-29T05:26:08;19.50;97.30
15292;DHT22;57357;49.480;11.058;2022-07-29T05:28:36;19.60;97.10
15292;DHT22;57357;49.480;11.058;2022-07-29T05:31:04;19.70;97.00
15292;DHT22;57357;49.480;11.058;2022-07-29T05:33:31;19.90;96.80
15292;DHT22;57357;49.480;11.058;2022-07-29T05:36:02;19.90;96.80
15292;DHT22;57357;49.480;11.058;2022-07-29T05:38:31;20.00;96.80
15292;DHT22;57357;49.480;11.058;2022-07-29T05:41:01;20.00;96.80
15292;DHT22;57357;49.480;11.058;2022-07-29T05:43:29;20.10;96.70
15292;DHT22;57357;49.480;11.058;2022-07-29T05:45:57;20.20;96.70
15292;DHT22;57357;49.480;11.058;2022-07-29T05:48:25;20.20;96.80
15292;DHT22;57357;49.480;11.058;2022-07-29T05:50:53;20.20;96.90
15292;DHT22;57357;49.480;11.058;2022-07-29T05:53:21;20.30;96.90
15292;DHT22;57357;49.480;11.058;2022-07-29T05:55:49;20.40;96.90
15292;DHT22;57357;49.480;11.058;2022-07-29T05:58:19;20.50;96.70
15292;DHT22;57357;49.480;11.058;2022-07-29T06:00:47;20.70;96.70
15292;DHT22;57357;49.480;11.058;2022-07-29T06:03:15;20.80;96.50
15292;DHT22;57357;49.480;11.058;2022-07-29T06:05:43;20.90;96.40
15292;DHT22;57357;49.480;11.058;2022-07-29T06:08:11;21.00;96.40
15292;DHT22;57357;49.480;11.058;2022-07-29T06:10:39;21.10;97.00
15292;DHT22;57357;49.480;11.058;2022-07-29T06:13:07;21.20;96.40
15292;DHT22;57357;49.480;11.058;2022-07-29T06:15:36;21.30;96.60
15292;DHT22;57357;49.480;11.058;2022-07-29T06:18:04;21.40;96.60
15292;DHT22;57357;49.480;11.058;2022-07-29T06:20:35;21.50;96.50
15292;DHT22;57357;49.480;11.058;2022-07-29T06:23:03;21.60;96.50
15292;DHT22;57357;49.480;11.058;2022-07-29T06:25:31;21.70;96.40
15292;DHT22;57357;49.480;11.058;2022-07-29T06:28:01;21.70;96.40
15292;DHT22;57357;49.480;11.058;2022-07-29T06:30:29;21.90;96.60
15292;DHT22;57357;49.480;11.058;2022-07-29T06:32:59;22.00;96.50
15292;DHT22;57357;49.480;11.058;2022-07-29T06:35:28;22.10;96.60
15292;DHT22;57357;49.480;11.058;2022-07-29T06:38:05;22.30;96.40
15292;DHT22;57357;49.480;11.058;2022-07-29T06:40:41;22.20;96.50
15292;DHT22;57357;49.480;11.058;2022-07-29T06:43:26;22.40;96.70
15292;DHT22;57357;49.480;11.058;2022-07-29T06:45:55;22.40;96.40
15292;DHT22;57357;49.480;11.058;2022-07-29T06:48:24;22.40;96.40
15292;DHT22;57357;49.480;11.058;2022-07-29T06:50:53;22.60;96.70
15292;DHT22;57357;49.480;11.058;2022-07-29T06:53:21;22.90;96.60
15292;DHT22;57357;49.480;11.058;2022-07-29T06:55:48;23.00;96.20
15292;DHT22;57357;49.480;11.058;2022-07-29T06:58:16;23.00;96.40
15292;DHT22;57357;49.480;11.058;2022-07-29T07:00:46;23.00;96.80
15292;DHT22;57357;49.480;11.058;2022-07-29T07:03:15;23.20;96.60
15292;DHT22;57357;49.480;11.058;2022-07-29T07:05:45;23.30;96.40
15292;DHT22;57357;49.480;11.058;2022-07-29T07:08:13;23.40;96.30
15292;DHT22;57357;49.480;11.058;2022-07-29T07:10:42;23.40;96.60
15292;DHT22;57357;49.480;11.058;2022-07-29T07:13:10;23.50;96.30
15292;DHT22;57357;49.480;11.058;2022-07-29T07:15:38;23.40;96.20
15292;DHT22;57357;49.480;11.058;2022-07-29T07:18:06;23.50;96.40
15292;DHT22;57357;49.480;11.058;2022-07-29T07:20:34;23.50;96.00
15292;DHT22;57357;49.480;11.058;2022-07-29T07:23:03;23.50;96.50
15292;DHT22;57357;49.480;11.058;2022-07-29T07:25:31;23.80;96.50
15292;DHT22;57357;49.480;11.058;2022-07-29T07:28:01;23.70;96.00
15292;DHT22;57357;49.480;11.058;2022-07-29T07:30:28;23.80;96.00
15292;DHT22;57357;49.480;11.058;2022-07-29T07:32:57;24.10;95.80
15292;DHT22;57357;49.480;11.058;2022-07-29T07:35:25;24.30;95.90
15292;DHT22;57357;49.480;11.058;2022-07-29T07:37:55;24.30;95.80
15292;DHT22;57357;49.480;11.058;2022-07-29T07:40:24;24.50;95.80
15292;DHT22;57357;49.480;11.058;2022-07-29T07:42:52;24.50;95.80
15292;DHT22;57357;49.480;11.058;2022-07-29T07:45:20;24.50;95.50
15292;DHT22;57357;49.480;11.058;2022-07-29T07:47:48;24.30;95.60
15292;DHT22;57357;49.480;11.058;2022-07-29T07:50:15;24.60;95.90
15292;DHT22;57357;49.480;11.058;2022-07-29T07:52:48;24.60;95.40
15292;DHT22;57357;49.480;11.058;2022-07-29T07:55:16;24.70;95.40
15292;DHT22;57357;49.480;11.058;2022-07-29T07:57:45;24.80;95.20
15292;DHT22;57357;49.480;11.058;2022-07-29T08:00:13;24.90;95.40
15292;DHT22;57357;49.480;11.058;2022-07-29T08:02:41;25.00;94.90
15292;DHT22;57357;49.480;11.058;2022-07-29T08:05:11;24.90;95.40
15292;DHT22;57357;49.480;11.058;2022-07-29T08:07:43;25.10;95.10
15292;DHT22;57357;49.480;11.058;2022-07-29T08:10:12;25.00;95.20
15292;DHT22;57357;49.480;11.058;2022-07-29T08:12:40;25.00;95.30
15292;DHT22;57357;49.480;11.058;2022-07-29T08:15:09;25.10;95.30
15292;DHT22;57357;49.480;11.058;2022-07-29T08:17:37;25.10;95.10
15292;DHT22;57357;49.480;11.058;2022-07-29T08:20:05;25.30;95.20
15292;DHT22;57357;49.480;11.058;2022-07-29T08:22:33;25.10;95.00
15292;DHT22;57357;49.480;11.058;2022-07-29T08:25:01;25.20;95.20
15292;DHT22;57357;49.480;11.058;2022-07-29T08:27:28;25.20;95.30
15292;DHT22;57357;49.480;11.058;2022-07-29T08:30:10;25.20;95.20
15292;DHT22;57357;49.480;11.058;2022-07-29T08:32:38;25.20;95.30
15292;DHT22;57357;49.480;11.058;2022-07-29T08:35:19;25.10;95.70
15292;DHT22;57357;49.480;11.058;2022-07-29T08:37:47;25.20;95.70
15292;DHT22;57357;49.480;11.058;2022-07-29T08:40:15;25.30;95.30
15292;DHT22;57357;49.480;11.058;2022-07-29T08:42:42;25.70;95.50
15292;DHT22;57357;49.480;11.058;2022-07-29T08:45:12;25.60;94.80
15292;DHT22;57357;49.480;11.058;2022-07-29T08:47:39;25.60;94.80
15292;DHT22;57357;49.480;11.058;2022-07-29T08:50:08;25.80;95.00
15292;DHT22;57357;49.480;11.058;2022-07-29T08:52:38;26.20;94.40
15292;DHT22;57357;49.480;11.058;2022-07-29T08:55:06;26.20;94.50
15292;DHT22;57357;49.480;11.058;2022-07-29T08:57:35;26.60;93.90
15292;DHT22;57357;49.480;11.058;2022-07-29T09:00:05;26.70;93.80
15292;DHT22;57357;49.480;11.058;2022-07-29T09:02:35;27.00;93.40
15292;DHT22;57357;49.480;11.058;2022-07-29T09:05:05;26.80;93.30
15292;DHT22;57357;49.480;11.058;2022-07-29T09:07:33;27.00;93.70
15292;DHT22;57357;49.480;11.058;2022-07-29T09:10:02;27.20;93.30
15292;DHT22;57357;49.480;11.058;2022-07-29T09:12:31;27.40;93.30
15292;DHT22;57357;49.480;11.058;2022-07-29T09:15:03;27.70;92.70
15292;DHT22;57357;49.480;11.058;2022-07-29T09:17:42;27.80;92.30
15292;DHT22;57357;49.480;11.058;2022-07-29T09:20:10;27.50;92.00
15292;DHT22;57357;49.480;11.058;2022-07-29T09:22:38;27.70;91.80
15292;DHT22;57357;49.480;11.058;2022-07-29T09:25:07;27.40;92.40
15292;DHT22;57357;49.480;11.058;2022-07-29T09:27:35;27.70;92.30
15292;DHT22;57357;49.480;11.058;2022-07-29T09:30:04;27.90;92.00
15292;DHT22;57357;49.480;11.058;2022-07-29T09:32:32;28.00;91.70
15292;DHT22;57357;49.480;11.058;2022-07-29T09:35:17;28.60;91.40
15292;DHT22;57357;49.480;11.058;2022-07-29T09:37:46;28.20;91.40
15292;DHT22;57357;49.480;11.058;2022-07-29T09:40:15;28.30;91.40
15292;DHT22;57357;49.480;11.058;2022-07-29T09:42:43;28.50;91.60
15292;DHT22;57357;49.480;11.058;2022-07-29T09:45:11;28.80;91.00
15292;DHT22;57357;49.480;11.058;2022-07-29T09:47:42;29.00;90.30
15292;DHT22;57357;49.480;11.058;2022-07-29T09:50:12;29.20;90.30
15292;DHT22;57357;49.480;11.058;2022-07-29T09:52:46;29.30;90.30
15292;DHT22;57357;49.480;11.058;2022-07-29T09:55:14;29.40;90.00
15292;DHT22;57357;49.480;11.058;2022-07-29T09:57:43;29.60;89.30
15292;DHT22;57357;49.480;11.058;2022-07-29T10:00:12;29.60;88.00
15292;DHT22;57357;49.480;11.058;2022-07-29T10:02:41;29.70;88.40
15292;DHT22;57357;49.480;11.058;2022-07-29T10:05:17;29.60;87.00
15292;DHT22;57357;49.480;11.058;2022-07-29T10:07:47;29.70;88.30
15292;DHT22;57357;49.480;11.058;2022-07-29T10:10:20;29.50;86.80
15292;DHT22;57357;49.480;11.058;2022-07-29T10:12:50;29.00;88.10
15292;DHT22;57357;49.480;11.058;2022-07-29T10:15:18;28.80;88.60
15292;DHT22;57357;49.480;11.058;2022-07-29T10:17:46;28.90;88.80
15292;DHT22;57357;49.480;11.058;2022-07-29T10:20:14;28.90;88.10
15292;DHT22;57357;49.480;11.058;2022-07-29T10:22:42;29.20;87.70
15292;DHT22;57357;49.480;11.058;2022-07-29T10:25:20;28.80;87.40
15292;DHT22;57357;49.480;11.058;2022-07-29T10:27:48;28.90;88.00
15292;DHT22;57357;49.480;11.058;2022-07-29T10:30:17;28.90;87.40
15292;DHT22;57357;49.480;11.058;2022-07-29T10:32:50;29.40;87.90
15292;DHT22;57357;49.480;11.058;2022-07-29T10:35:22;29.40;87.50
15292;DHT22;57357;49.480;11.058;2022-07-29T10:38:02;29.40;87.60
15292;DHT22;57357;49.480;11.058;2022-07-29T10:40:36;29.30;88.60
15292;DHT22;57357;49.480;11.058;2022-07-29T10:43:24;29.20;89.10
15292;DHT22;57357;49.480;11.058;2022-07-29T10:45:54;29.90;88.30
15292;DHT22;57357;49.480;11.058;2022-07-29T10:48:23;30.10;87.70
15292;DHT22;57357;49.480;11.058;2022-07-29T10:50:51;30.30;87.10
15292;DHT22;57357;49.480;11.058;2022-07-29T10:53:19;30.20;85.30
15292;DHT22;57357;49.480;11.058;2022-07-29T10:55:49;29.30;87.20
15292;DHT22;57357;49.480;11.058;2022-07-29T10:58:18;29.50;87.20
15292;DHT22;57357;49.480;11.058;2022-07-29T11:00:46;29.60;86.90
15292;DHT22;57357;49.480;11.058;2022-07-29T11:06:01;30.70;84.90
15292;DHT22;57357;49.480;11.058;2022-07-29T11:09:00;30.80;84.20
15292;DHT22;57357;49.480;11.058;2022-07-29T11:11:43;30.80;84.20
15292;DHT22;57357;49.480;11.058;2022-07-29T11:14:17;30.50;84.10
15292;DHT22;57357;49.480;11.058;2022-07-29T11:16:58;30.90;82.80
15292;DHT22;57357;49.480;11.058;2022-07-29T11:19:26;31.20;82.30
15292;DHT22;57357;49.480;11.058;2022-07-29T11:21:56;31.30;79.90
15292;DHT22;57357;49.480;11.058;2022-07-29T11:24:25;31.30;79.70
15292;DHT22;57357;49.480;11.058;2022-07-29T11:27:13;31.40;79.00
15292;DHT22;57357;49.480;11.058;2022-07-29T11:29:50;31.70;79.40
15292;DHT22;57357;49.480;11.058;2022-07-29T11:32:19;31.60;78.50
15292;DHT22;57357;49.480;11.058;2022-07-29T11:35:11;31.50;77.50
15292;DHT22;57357;49.480;11.058;2022-07-29T11:37:43;31.50;79.40
15292;DHT22;57357;49.480;11.058;2022-07-29T11:40:12;31.90;77.10
15292;DHT22;57357;49.480;11.058;2022-07-29T11:42:48;31.70;77.90
15292;DHT22;57357;49.480;11.058;2022-07-29T11:45:46;31.90;78.40
15292;DHT22;57357;49.480;11.058;2022-07-29T11:48:17;31.50;78.40
15292;DHT22;57357;49.480;11.058;2022-07-29T11:50:55;31.80;78.50
15292;DHT22;57357;49.480;11.058;2022-07-29T11:53:24;32.80;79.30
15292;DHT22;57357;49.480;11.058;2022-07-29T11:55:54;33.60;76.00
15292;DHT22;57357;49.480;11.058;2022-07-29T11:58:25;34.10;76.10
15292;DHT22;57357;49.480;11.058;2022-07-29T12:00:53;34.80;75.70
15292;DHT22;57357;49.480;11.058;2022-07-29T12:03:23;35.00;73.90
15292;DHT22;57357;49.480;11.058;2022-07-29T12:06:01;34.60;73.10
15292;DHT22;57357;49.480;11.058;2022-07-29T12:08:29;34.60;73.20
15292;DHT22;57357;49.480;11.058;2022-07-29T12:10:57;35.20;69.60
15292;DHT22;57357;49.480;11.058;2022-07-29T12:13:26;36.10;68.90
15292;DHT22;57357;49.480;11.058;2022-07-29T12:16:05;35.50;69.60
15292;DHT22;57357;49.480;11.058;2022-07-29T12:18:33;35.80;70.10
15292;DHT22;57357;49.480;11.058;2022-07-29T12:21:01;36.40;67.70
15292;DHT22;57357;49.480;11.058;2022-07-29T12:23:30;36.00;65.80
15292;DHT22;57357;49.480;11.058;2022-07-29T12:25:59;35.00;66.10
15292;DHT22;57357;49.480;11.058;2022-07-29T12:28:29;35.60;64.90
15292;DHT22;57357;49.480;11.058;2022-07-29T12:30:57;36.70;64.20
15292;DHT22;57357;49.480;11.058;2022-07-29T12:33:26;36.30;62.60
15292;DHT22;57357;49.480;11.058;2022-07-29T12:35:54;35.80;61.80
15292;DHT22;57357;49.480;11.058;2022-07-29T12:38:42;36.70;61.30
15292;DHT22;57357;49.480;11.058;2022-07-29T12:41:10;38.60;58.30
15292;DHT22;57357;49.480;11.058;2022-07-29T12:43:47;38.60;57.20
15292;DHT22;57357;49.480;11.058;2022-07-29T12:46:18;36.80;59.20
15292;DHT22;57357;49.480;11.058;2022-07-29T12:48:49;34.90;59.30
15292;DHT22;57357;49.480;11.058;2022-07-29T12:51:17;33.70;60.30
15292;DHT22;57357;49.480;11.058;2022-07-29T12:54:01;33.40;62.20
15292;DHT22;57357;49.480;11.058;2022-07-29T12:56:30;33.10;63.60
15292;DHT22;57357;49.480;11.058;2022-07-29T12:59:15;32.00;65.50
15292;DHT22;57357;49.480;11.058;2022-07-29T13:01:44;31.60;66.70
15292;DHT22;57357;49.480;11.058;2022-07-29T13:04:23;31.80;67.50
15292;DHT22;57357;49.480;11.058;2022-07-29T13:06:57;32.00;66.80
15292;DHT22;57357;49.480;11.058;2022-07-29T13:09:35;31.80;66.80
15292;DHT22;57357;49.480;11.058;2022-07-29T13:12:05;32.10;67.00
15292;DHT22;57357;49.480;11.058;2022-07-29T13:14:35;31.40;66.60
15292;DHT22;57357;49.480;11.058;2022-07-29T13:17:04;31.90;66.50
15292;DHT22;57357;49.480;11.058;2022-07-29T13:19:34;32.40;66.00
15292;DHT22;57357;49.480;11.058;2022-07-29T13:22:02;32.90;66.10
15292;DHT22;57357;49.480;11.058;2022-07-29T13:24:29;33.00;65.00
15292;DHT22;57357;49.480;11.058;2022-07-29T13:26:57;32.90;64.10
15292;DHT22;57357;49.480;11.058;2022-07-29T13:29:25;33.50;65.10
15292;DHT22;57357;49.480;11.058;2022-07-29T13:31:58;33.50;64.60
15292;DHT22;57357;49.480;11.058;2022-07-29T13:34:26;32.90;64.40
15292;DHT22;57357;49.480;11.058;2022-07-29T13:36:54;32.90;63.90
15292;DHT22;57357;49.480;11.058;2022-07-29T13:39:22;31.90;66.10
15292;DHT22;57357;49.480;11.058;2022-07-29T13:41:50;31.80;67.30
15292;DHT22;57357;49.480;11.058;2022-07-29T13:44:18;31.40;67.00
15292;DHT22;57357;49.480;11.058;2022-07-29T13:46:46;31.00;73.20
15292;DHT22;57357;49.480;11.058;2022-07-29T13:49:15;30.40;76.10
15292;DHT22;57357;49.480;11.058;2022-07-29T13:51:43;29.90;77.70
15292;DHT22;57357;49.480;11.058;2022-07-29T13:54:11;28.90;81.40
15292;DHT22;57357;49.480;11.058;2022-07-29T13:56:39;28.10;84.30
15292;DHT22;57357;49.480;11.058;2022-07-29T13:59:07;27.90;86.00
15292;DHT22;57357;49.480;11.058;2022-07-29T14:01:35;27.70;87.10
15292;DHT22;57357;49.480;11.058;2022-07-29T14:04:03;27.70;87.20
15292;DHT22;57357;49.480;11.058;2022-07-29T14:06:32;27.60;87.60
15292;DHT22;57357;49.480;11.058;2022-07-29T14:08:59;27.50;87.90
15292;DHT22;57357;49.480;11.058;2022-07-29T14:11:27;27.70;88.10
15292;DHT22;57357;49.480;11.058;2022-07-29T14:13:55;27.80;86.40
15292;DHT22;57357;49.480;11.058;2022-07-29T14:16:23;27.80;86.80
15292;DHT22;57357;49.480;11.058;2022-07-29T14:18:51;27.30;89.50
15292;DHT22;57357;49.480;11.058;2022-07-29T14:21:18;27.00;90.90
15292;DHT22;57357;49.480;11.058;2022-07-29T14:23:48;26.40;92.20
15292;DHT22;57357;49.480;11.058;2022-07-29T14:26:15;26.00;93.40
15292;DHT22;57357;49.480;11.058;2022-07-29T14:28:47;25.70;93.70
15292;DHT22;57357;49.480;11.058;2022-07-29T14:31:14;25.50;94.20
15292;DHT22;57357;49.480;11.058;2022-07-29T14:33:42;25.20;95.40
15292;DHT22;57357;49.480;11.058;2022-07-29T14:36:11;25.30;95.50
15292;DHT22;57357;49.480;11.058;2022-07-29T14:38:39;25.20;96.10
15292;DHT22;57357;49.480;11.058;2022-07-29T14:41:08;25.10;96.80
15292;DHT22;57357;49.480;11.058;2022-07-29T14:43:36;25.20;97.20
15292;DHT22;57357;49.480;11.058;2022-07-29T14:46:04;24.80;97.90
15292;DHT22;57357;49.480;11.058;2022-07-29T14:48:34;24.70;98.70
15292;DHT22;57357;49.480;11.058;2022-07-29T14:51:01;24.80;99.10
15292;DHT22;57357;49.480;11.058;2022-07-29T14:53:30;24.80;99.80
15292;DHT22;57357;49.480;11.058;2022-07-29T14:55:58;24.70;99.90
15292;DHT22;57357;49.480;11.058;2022-07-29T14:58:47;24.50;99.90
15292;DHT22;57357;49.480;11.058;2022-07-29T15:01:17;24.40;99.90
15292;DHT22;57357;49.480;11.058;2022-07-29T15:03:45;24.50;99.90
15292;DHT22;57357;49.480;11.058;2022-07-29T15:06:13;24.60;99.90
15292;DHT22;57357;49.480;11.058;2022-07-29T15:08:40;24.50;99.90
15292;DHT22;57357;49.480;11.058;2022-07-29T15:11:08;24.30;99.90
15292;DHT22;57357;49.480;11.058;2022-07-29T15:13:36;23.90;99.90
15292;DHT22;57357;49.480;11.058;2022-07-29T15:16:05;23.60;99.90
15292;DHT22;57357;49.480;11.058;2022-07-29T15:18:33;23.20;99.90
15292;DHT22;57357;49.480;11.058;2022-07-29T15:21:01;22.90;99.90
15292;DHT22;57357;49.480;11.058;2022-07-29T15:23:29;22.70;99.90
15292;DHT22;57357;49.480;11.058;2022-07-29T15:25:57;22.70;99.90
15292;DHT22;57357;49.480;11.058;2022-07-29T15:28:24;22.60;99.90
15292;DHT22;57357;49.480;11.058;2022-07-29T15:30:52;22.60;99.90
15292;DHT22;57357;49.480;11.058;2022-07-29T15:33:22;22.50;99.90
15292;DHT22;57357;49.480;11.058;2022-07-29T15:35:49;22.40;99.90
15292;DHT22;57357;49.480;11.058;2022-07-29T15:38:17;22.30;99.90
15292;DHT22;57357;49.480;11.058;2022-07-29T15:40:45;22.10;99.90
15292;DHT22;57357;49.480;11.058;2022-07-29T15:43:13;21.80;99.90
15292;DHT22;57357;49.480;11.058;2022-07-29T15:45:41;21.60;99.90
15292;DHT22;57357;49.480;11.058;2022-07-29T15:48:30;21.40;99.90
15292;DHT22;57357;49.480;11.058;2022-07-29T15:50:58;21.40;99.90
15292;DHT22;57357;49.480;11.058;2022-07-29T15:53:26;21.40;99.90
15292;DHT22;57357;49.480;11.058;2022-07-29T15:55:55;21.40;99.90
15292;DHT22;57357;49.480;11.058;2022-07-29T15:58:22;21.20;99.90
15292;DHT22;57357;49.480;11.058;2022-07-29T16:00:50;21.20;99.90
15292;DHT22;57357;49.480;11.058;2022-07-29T16:03:18;21.10;99.90
15292;DHT22;57357;49.480;11.058;2022-07-29T16:05:47;20.90;99.90
15292;DHT22;57357;49.480;11.058;2022-07-29T16:08:15;20.50;99.90
15292;DHT22;57357;49.480;11.058;2022-07-29T16:10:43;20.10;99.90
15292;DHT22;57357;49.480;11.058;2022-07-29T16:13:11;19.80;99.90
15292;DHT22;57357;49.480;11.058;2022-07-29T16:15:42;19.60;99.90
15292;DHT22;57357;49.480;11.058;2022-07-29T16:18:10;19.30;99.90
15292;DHT22;57357;49.480;11.058;2022-07-29T16:20:39;19.20;99.90
15292;DHT22;57357;49.480;11.058;2022-07-29T16:23:08;19.00;99.90